Spring Sky — 9V3060 — position and weather

sailwx.info

Track history (hours):
 
Tides and Currents Weather Stations Pressure Air Temp Water Temp Dewpoint Dewpoint Depression Visibility Wind Speed Wind Dir Waves Ship Positions

Spring Sky

Last reported at 2018-Jun-21 01:08 UTC. Time now 2018-Jun-22 16:28 UTC.
Position N 36°35' W 001°19'.

Length 199 m; draft 6.6 m.

Type: Cargo ship. MMSI: 565775000.

Date/timePositionNaut miles runAvg speedWind from/ knotsBaromVisibWave heightAir tempDewpointWater temp
2018-Jun-21 01:08N 36°35' W 001°19'214.5
2018-Jun-21 00:59N 36°35' W 001°17'714.6
2018-Jun-21 00:30N 36°37' W 001°08'714.4
2018-Jun-21 00:00N 36°39' W 000°59'714.4
2018-Jun-20 23:30N 36°41' W 000°51'714.5
2018-Jun-20 23:00N 36°42' W 000°42'714.4
2018-Jun-20 22:30N 36°43' W 000°33'914.5
2018-Jun-20 21:54N 36°45' W 000°22'614.5
2018-Jun-20 21:30N 36°46' W 000°15'714.7
2018-Jun-20 21:00N 36°48' W 000°06'815.0
2018-Jun-20 20:29N 36°49' E 000°03'715.0
2018-Jun-20 20:00N 36°51' E 000°12'815.0
2018-Jun-20 19:30N 36°53' E 000°21'715.0
2018-Jun-20 19:00N 36°54' E 000°30'814.9
2018-Jun-20 18:29N 36°56' E 000°40'714.7
2018-Jun-20 18:00N 36°57' E 000°48'814.5
2018-Jun-20 17:28N 36°59' E 000°58'714.6
2018-Jun-20 17:00N 37°01' E 001°06'914.5
2018-Jun-20 16:24N 37°03' E 001°17'614.3
2018-Jun-20 16:00N 37°04' E 001°24'714.5
2018-Jun-20 15:30N 37°06' E 001°32'714.3
2018-Jun-20 14:59N 37°08' E 001°41'714.0
2018-Jun-20 14:28N 37°09' E 001°50'613.8
2018-Jun-20 14:00N 37°10' E 001°58'713.6
2018-Jun-20 13:31N 37°11' E 002°07'713.4
2018-Jun-20 13:00N 37°11' E 002°15'3814.5
2018-Jun-20 10:23N 37°15' E 003°03'615.4
2018-Jun-20 10:00N 37°16' E 003°10'56813.4
2018-Jun-18 15:40N 36°12' E 014°54'213.5
2018-Jun-18 15:31N 36°12' E 014°57'713.4
2018-Jun-18 15:00N 36°11' E 015°05'45413.8
2018-Jun-17 06:08N 35°41' E 024°25'31713.4
2018-Jun-16 06:28N 35°35' E 030°54'714.3
2018-Jun-16 05:58N 35°35' E 031°03'18814.2
2018-Jun-15 16:43N 36°13' E 034°51'713.6
2018-Jun-15 16:15N 36°12' E 034°59'713.9
2018-Jun-15 15:45N 36°08' E 035°05'  
Track history (hours):
 
Tides and Currents Weather Stations Pressure Air Temp Water Temp Dewpoint Dewpoint Depression Visibility Wind Speed Wind Dir Waves Ship Positions

Spring Sky

Last reported at 2018-Jun-21 01:08 UTC. Time now 2018-Jun-22 16:28 UTC.
Position N 36°35' W 001°19'.

Length 199 m; draft 6.6 m.

Type: Cargo ship. MMSI: 565775000.

Date/timePositionNaut miles runAvg speedWind from/ knotsBaromVisibWave heightAir tempDewpointWater temp
2018-Jun-21 01:08N 36°35' W 001°19'214.5
2018-Jun-21 00:59N 36°35' W 001°17'714.6
2018-Jun-21 00:30N 36°37' W 001°08'714.4
2018-Jun-21 00:00N 36°39' W 000°59'714.4
2018-Jun-20 23:30N 36°41' W 000°51'714.5
2018-Jun-20 23:00N 36°42' W 000°42'714.4
2018-Jun-20 22:30N 36°43' W 000°33'914.5
2018-Jun-20 21:54N 36°45' W 000°22'614.5
2018-Jun-20 21:30N 36°46' W 000°15'714.7
2018-Jun-20 21:00N 36°48' W 000°06'815.0
2018-Jun-20 20:29N 36°49' E 000°03'715.0
2018-Jun-20 20:00N 36°51' E 000°12'815.0
2018-Jun-20 19:30N 36°53' E 000°21'715.0
2018-Jun-20 19:00N 36°54' E 000°30'814.9
2018-Jun-20 18:29N 36°56' E 000°40'714.7
2018-Jun-20 18:00N 36°57' E 000°48'814.5
2018-Jun-20 17:28N 36°59' E 000°58'714.6
2018-Jun-20 17:00N 37°01' E 001°06'914.5
2018-Jun-20 16:24N 37°03' E 001°17'614.3
2018-Jun-20 16:00N 37°04' E 001°24'714.5
2018-Jun-20 15:30N 37°06' E 001°32'714.3
2018-Jun-20 14:59N 37°08' E 001°41'714.0
2018-Jun-20 14:28N 37°09' E 001°50'613.8
2018-Jun-20 14:00N 37°10' E 001°58'713.6
2018-Jun-20 13:31N 37°11' E 002°07'713.4
2018-Jun-20 13:00N 37°11' E 002°15'3814.5
2018-Jun-20 10:23N 37°15' E 003°03'615.4
2018-Jun-20 10:00N 37°16' E 003°10'56813.4
2018-Jun-18 15:40N 36°12' E 014°54'213.5
2018-Jun-18 15:31N 36°12' E 014°57'713.4
2018-Jun-18 15:00N 36°11' E 015°05'45413.8
2018-Jun-17 06:08N 35°41' E 024°25'31713.4
2018-Jun-16 06:28N 35°35' E 030°54'714.3
2018-Jun-16 05:58N 35°35' E 031°03'18814.2
2018-Jun-15 16:43N 36°13' E 034°51'713.6
2018-Jun-15 16:15N 36°12' E 034°59'713.9
2018-Jun-15 15:45N 36°08' E 035°05'  

Dump ship's entire track history